Time;durP1;ratioP1;P1;durP2;ratioP2;P2;SDS_P1;SDS_P2;PMS_P1;PMS_P2;Temp;Humidity;BMP_temperature;BMP_pressure;BME280_temperature;BME280_humidity;BME280_pressure;Samples;Min_cycle;Max_cycle;Signal;HPM_P1;HPM_P2
2023/04/10 00:01:34;;;;;;;19.20;14.10;;;;;;;7.40;58.20;96812.72;4971054;28;20216;-71
2023/04/10 00:04:00;;;;;;;19.47;15.63;;;;;;;7.31;58.05;96806.88;4985525;28;20188;-70
2023/04/10 00:06:27;;;;;;;19.10;12.87;;;;;;;7.33;58.11;96815.53;4968185;28;20495;-71
2023/04/10 00:08:52;;;;;;;18.23;14.30;;;;;;;7.16;58.30;96808.94;4982153;28;20181;-71
2023/04/10 00:11:18;;;;;;;16.40;13.17;;;;;;;7.17;58.60;96804.59;4971752;28;20429;-71
2023/04/10 00:13:43;;;;;;;17.47;13.80;;;;;;;7.17;58.51;96809.81;4986765;28;20177;-71
2023/04/10 00:16:10;;;;;;;17.53;13.70;;;;;;;7.07;58.91;96810.94;4966288;28;20594;-71
2023/04/10 00:18:35;;;;;;;14.43;12.30;;;;;;;7.10;58.73;96803.00;4973341;28;20250;-70
2023/04/10 00:21:02;;;;;;;18.33;14.57;;;;;;;7.20;58.49;96801.88;4987287;28;21313;-71
2023/04/10 00:23:30;;;;;;;20.67;14.77;;;;;;;7.14;58.80;96805.50;4969601;28;20652;-70
2023/04/10 00:25:56;;;;;;;18.57;13.53;;;;;;;7.09;58.73;96798.69;4971114;28;21241;-69
2023/04/10 00:28:21;;;;;;;34.13;14.70;;;;;;;7.19;58.90;96800.19;4987254;28;20428;-70
2023/04/10 00:30:47;;;;;;;15.53;12.27;;;;;;;7.07;59.06;96809.16;4987161;28;20207;-70
2023/04/10 00:33:13;;;;;;;14.43;12.00;;;;;;;6.98;59.21;96801.53;4969366;28;20273;-70
2023/04/10 00:35:38;;;;;;;16.93;12.90;;;;;;;7.09;59.22;96798.69;4970566;28;20220;-70
2023/04/10 00:38:04;;;;;;;16.50;12.43;;;;;;;7.07;58.82;96796.13;4977638;28;20188;-70
2023/04/10 00:40:29;;;;;;;16.80;13.20;;;;;;;6.96;58.89;96801.56;4971103;28;20220;-70
2023/04/10 00:42:54;;;;;;;16.47;13.50;;;;;;;7.09;58.32;96791.72;4967444;28;20186;-70
2023/04/10 00:45:20;;;;;;;16.70;12.67;;;;;;;7.07;58.51;96792.66;4975656;28;20375;-70
2023/04/10 00:47:45;;;;;;;17.30;13.83;;;;;;;6.83;59.43;96801.88;4975918;28;20204;-70
2023/04/10 00:50:11;;;;;;;15.10;12.07;;;;;;;6.69;59.73;96803.06;4968145;28;20504;-70
2023/04/10 00:52:37;;;;;;;14.03;12.43;;;;;;;6.81;58.79;96796.72;4967989;28;20193;-70
2023/04/10 00:55:03;;;;;;;14.67;11.50;;;;;;;6.90;58.79;96795.66;4967909;28;20182;-70
2023/04/10 00:57:29;;;;;;;15.67;11.50;;;;;;;6.94;58.92;96802.50;4980369;28;20204;-70
2023/04/10 00:59:54;;;;;;;20.73;13.17;;;;;;;6.79;59.16;96799.34;4972108;28;20484;-70
2023/04/10 01:02:20;;;;;;;14.70;12.00;;;;;;;6.77;59.51;96792.47;4969948;28;20177;-70
2023/04/10 01:04:46;;;;;;;16.57;12.40;;;;;;;6.75;59.84;96796.84;4984696;28;20180;-70
2023/04/10 01:07:35;;;;;;;24.43;12.63;;;;;;;6.89;59.09;96791.31;4979096;28;20200;-70
2023/04/10 01:10:09;;;;;;;15.27;12.47;;;;;;;6.83;59.72;96789.72;4973452;28;20451;-70
2023/04/10 01:13:10;;;;;;;20.07;11.97;;;;;;;6.63;59.85;96789.31;4982939;28;20761;-70
2023/04/10 01:15:58;;;;;;;14.97;11.33;;;;;;;6.74;59.80;96795.16;4984349;28;20420;-70
2023/04/10 01:18:38;;;;;;;15.60;12.40;;;;;;;6.79;59.74;96793.28;4973151;28;20822;-70
2023/04/10 01:21:08;;;;;;;15.37;11.43;;;;;;;6.78;60.20;96792.44;4977971;28;20982;-70
2023/04/10 01:23:56;;;;;;;16.40;12.70;;;;;;;6.79;59.97;96790.69;4968347;28;20455;-71
2023/04/10 01:26:38;;;;;;;20.57;11.50;;;;;;;6.72;60.21;96791.72;4975856;28;20432;-70
2023/04/10 01:29:08;;;;;;;16.33;12.03;;;;;;;6.72;59.75;96792.56;4976712;28;20446;-70
2023/04/10 01:31:44;;;;;;;15.93;12.50;;;;;;;6.76;59.81;96785.53;4978212;28;20417;-70
2023/04/10 01:34:15;;;;;;;14.80;12.40;;;;;;;6.73;59.91;96788.19;4968029;28;20452;-71
2023/04/10 01:37:02;;;;;;;16.77;12.23;;;;;;;6.64;60.40;96793.63;4977506;28;20431;-71
2023/04/10 01:39:30;;;;;;;14.43;11.50;;;;;;;6.77;59.66;96784.63;4969912;28;20477;-71
2023/04/10 01:41:58;;;;;;;18.27;12.70;;;;;;;6.77;59.70;96789.84;4984901;28;20424;-70
2023/04/10 01:44:28;;;;;;;15.07;11.70;;;;;;;6.64;60.01;96780.56;4970434;28;20426;-70
2023/04/10 01:46:55;;;;;;;15.50;11.83;;;;;;;6.64;60.04;96783.19;4976874;28;20518;-70
2023/04/10 01:49:24;;;;;;;21.63;12.37;;;;;;;6.65;60.25;96779.69;4978879;28;20433;-70
2023/04/10 01:51:50;;;;;;;20.27;12.40;;;;;;;6.57;60.27;96783.34;4967540;28;20429;-70
2023/04/10 01:54:16;;;;;;;21.93;12.80;;;;;;;6.56;60.17;96779.00;4968771;28;20421;-70
2023/04/10 01:56:42;;;;;;;16.00;11.80;;;;;;;6.68;60.14;96777.88;4980272;28;20434;-70
2023/04/10 01:59:08;;;;;;;12.80;11.03;;;;;;;6.76;59.82;96781.19;4982954;28;20240;-70
2023/04/10 02:01:33;;;;;;;15.50;11.77;;;;;;;6.72;59.50;96784.72;4988339;28;20423;-70
2023/04/10 02:03:59;;;;;;;20.77;13.23;;;;;;;6.68;59.63;96769.19;4979393;28;20208;-70
2023/04/10 02:06:43;;;;;;;18.10;13.40;;;;;;;6.70;59.58;96775.22;4982677;28;20256;-70
2023/04/10 02:09:22;;;;;;;15.33;11.70;;;;;;;6.65;59.50;96777.09;4989018;28;20233;-70
2023/04/10 02:11:56;;;;;;;15.90;11.53;;;;;;;6.50;60.06;96773.09;4982702;28;20420;-71
2023/04/10 02:14:24;;;;;;;14.63;11.30;;;;;;;6.58;59.61;96779.81;4989887;28;20420;-71
2023/04/10 02:16:53;;;;;;;18.83;13.90;;;;;;;6.53;59.25;96779.06;4988817;28;20499;-71
2023/04/10 02:19:19;;;;;;;14.67;11.63;;;;;;;6.43;59.71;96780.16;4977510;28;20460;-69
2023/04/10 02:21:46;;;;;;;26.60;12.57;;;;;;;6.48;59.55;96785.28;4974478;28;20467;-70
2023/04/10 02:24:12;;;;;;;15.53;10.60;;;;;;;6.43;59.37;96776.72;4984971;28;20439;-71
2023/04/10 02:26:49;;;;;;;21.97;13.37;;;;;;;6.42;59.61;96782.81;4978681;28;20417;-70
2023/04/10 02:29:14;;;;;;;18.00;12.57;;;;;;;6.42;59.91;96775.81;4981096;28;20258;-70
2023/04/10 02:31:41;;;;;;;17.40;12.83;;;;;;;6.32;59.69;96776.94;4988331;28;20910;-70
2023/04/10 02:34:06;;;;;;;14.00;11.97;;;;;;;6.30;59.67;96776.94;4975801;28;20192;-70
2023/04/10 02:36:32;;;;;;;17.43;11.60;;;;;;;6.21;60.29;96773.69;4977150;28;20913;-70
2023/04/10 02:38:58;;;;;;;17.00;12.17;;;;;;;6.19;59.94;96775.44;4979934;28;20205;-70
2023/04/10 02:41:23;;;;;;;25.47;13.20;;;;;;;6.25;59.57;96785.75;4978514;28;20491;-70
2023/04/10 02:43:49;;;;;;;13.67;11.47;;;;;;;6.30;59.62;96789.13;4969973;28;20228;-69
2023/04/10 02:46:14;;;;;;;15.47;12.20;;;;;;;6.24;59.45;96778.84;4983990;28;20188;-70
2023/04/10 02:48:40;;;;;;;18.87;11.70;;;;;;;6.31;59.47;96777.84;4981012;28;20169;-70
2023/04/10 02:51:06;;;;;;;21.17;12.77;;;;;;;6.24;59.42;96784.06;4979199;28;20604;-69
2023/04/10 02:53:32;;;;;;;12.93;11.07;;;;;;;6.10;59.53;96786.94;4969993;28;20277;-70
2023/04/10 02:55:58;;;;;;;14.83;11.20;;;;;;;6.22;59.69;96785.84;4973427;28;20420;-70
2023/04/10 02:58:24;;;;;;;13.27;11.27;;;;;;;6.14;59.38;96783.38;4982011;28;20471;-70
2023/04/10 03:00:50;;;;;;;13.60;11.60;;;;;;;6.01;59.66;96774.94;4978300;28;20185;-70
2023/04/10 03:03:17;;;;;;;14.83;11.53;;;;;;;5.90;60.24;96785.53;4978579;28;20189;-69
2023/04/10 03:05:45;;;;;;;15.13;11.10;;;;;;;5.86;60.35;96780.44;4972235;28;20431;-70
2023/04/10 03:08:12;;;;;;;17.17;12.20;;;;;;;5.85;61.17;96770.88;4979863;28;20432;-70
2023/04/10 03:10:37;;;;;;;19.00;11.57;;;;;;;5.62;60.98;96764.38;4979611;28;20444;-70
2023/04/10 03:13:03;;;;;;;20.53;12.30;;;;;;;5.70;61.30;96772.91;4988354;28;20935;-70
2023/04/10 03:15:28;;;;;;;19.60;12.83;;;;;;;5.45;61.28;96756.84;4979814;28;20180;-70
2023/04/10 03:17:54;;;;;;;15.57;12.00;;;;;;;5.37;62.04;96763.09;4979250;28;20177;-70
2023/04/10 03:20:19;;;;;;;15.07;11.47;;;;;;;5.49;61.63;96752.47;4981963;28;20225;-70
2023/04/10 03:22:45;;;;;;;38.07;12.50;;;;;;;5.66;61.26;96760.81;4976938;28;20239;-70
2023/04/10 03:25:13;;;;;;;16.80;13.37;;;;;;;5.37;62.29;96763.09;4979949;28;20182;-69
2023/04/10 03:27:38;;;;;;;15.10;12.67;;;;;;;5.39;62.72;96763.94;4975441;28;20229;-70
2023/04/10 03:30:05;;;;;;;13.97;11.13;;;;;;;5.09;63.34;96768.78;4975034;28;21233;-69
2023/04/10 03:32:30;;;;;;;18.53;13.13;;;;;;;5.02;63.85;96764.56;4988524;28;20181;-69
2023/04/10 03:34:57;;;;;;;16.40;12.70;;;;;;;5.04;63.79;96760.19;4970671;28;20421;-70
2023/04/10 03:37:24;;;;;;;23.77;13.77;;;;;;;5.16;63.51;96759.97;4978850;28;20177;-69
2023/04/10 03:39:49;;;;;;;17.90;13.10;;;;;;;5.09;63.43;96763.56;4974151;28;20491;-70
2023/04/10 03:42:15;;;;;;;14.50;11.73;;;;;;;5.06;63.24;96758.44;4984497;28;20424;-69
2023/04/10 03:44:40;;;;;;;13.37;11.57;;;;;;;4.82;63.89;96755.34;4979959;28;20640;-69
2023/04/10 03:47:06;;;;;;;19.10;12.30;;;;;;;5.06;63.40;96748.03;4977304;28;20211;-70
2023/04/10 03:49:31;;;;;;;20.93;12.70;;;;;;;5.32;62.71;96749.31;4988139;28;20216;-70
2023/04/10 03:51:57;;;;;;;16.63;12.87;;;;;;;5.04;62.78;96752.38;4977619;28;20229;-70
2023/04/10 03:54:22;;;;;;;17.63;12.70;;;;;;;4.88;64.06;96750.00;4979501;28;20173;-70
2023/04/10 03:56:47;;;;;;;16.10;12.50;;;;;;;4.95;63.39;96753.38;4969202;28;20586;-70
2023/04/10 03:59:13;;;;;;;21.13;13.70;;;;;;;4.90;63.79;96754.34;4973588;28;20205;-70
2023/04/10 04:01:38;;;;;;;16.97;13.27;;;;;;;5.21;62.75;96758.16;4973386;28;20184;-70
2023/04/10 04:04:04;;;;;;;24.63;14.47;;;;;;;5.21;62.41;96763.34;4974557;28;20181;-70
2023/04/10 04:06:30;;;;;;;17.40;12.33;;;;;;;5.35;61.99;96760.53;4967974;28;20232;-70
2023/04/10 04:08:56;;;;;;;24.90;14.40;;;;;;;5.51;61.61;96766.31;4967986;28;20421;-70
2023/04/10 04:11:21;;;;;;;28.80;13.17;;;;;;;5.17;62.93;96763.44;4986048;28;20464;-70
2023/04/10 04:13:47;;;;;;;20.90;13.23;;;;;;;5.22;63.17;96766.81;4975268;28;20180;-70
2023/04/10 04:16:12;;;;;;;18.70;12.87;;;;;;;5.20;62.65;96766.84;4983357;28;20578;-70
2023/04/10 04:18:38;;;;;;;25.07;14.47;;;;;;;5.17;62.37;96769.50;4985362;28;20650;-70
2023/04/10 04:21:04;;;;;;;25.33;12.60;;;;;;;5.22;63.07;96769.41;4977328;28;20625;-70
2023/04/10 04:23:29;;;;;;;16.07;12.40;;;;;;;5.28;62.92;96775.38;4985793;28;20176;-69
2023/04/10 04:25:56;;;;;;;16.57;12.53;;;;;;;5.32;62.61;96771.00;4985612;28;20177;-69
2023/04/10 04:28:22;;;;;;;22.40;14.27;;;;;;;5.12;63.11;96778.25;4987214;28;20259;-70
2023/04/10 04:30:47;;;;;;;17.70;12.33;;;;;;;5.27;62.71;96783.22;4985318;28;20484;-70
2023/04/10 04:33:13;;;;;;;25.30;13.50;;;;;;;5.25;62.97;96771.97;4976633;28;20231;-70
2023/04/10 04:35:39;;;;;;;21.73;14.23;;;;;;;5.14;63.09;96773.91;4979000;28;20177;-70
2023/04/10 04:38:04;;;;;;;15.57;11.67;;;;;;;4.98;63.64;96783.69;4971981;28;20169;-70
2023/04/10 04:40:30;;;;;;;19.27;13.83;;;;;;;5.14;63.01;96784.31;4989685;28;20340;-70
2023/04/10 04:42:56;;;;;;;19.93;11.67;;;;;;;5.06;63.75;96784.44;4969105;28;20201;-69
2023/04/10 04:45:21;;;;;;;18.33;12.87;;;;;;;5.34;63.03;96781.34;4994407;28;20204;-70
2023/04/10 04:47:50;;;;;;;17.97;12.93;;;;;;;5.26;62.79;96781.50;4986194;28;20263;-70
2023/04/10 04:50:18;;;;;;;15.93;12.97;;;;;;;5.28;62.92;96788.38;4985615;28;20705;-69
2023/04/10 04:52:43;;;;;;;16.33;11.77;;;;;;;5.27;62.74;96783.22;4985039;28;20455;-70
2023/04/10 04:55:09;;;;;;;16.50;12.30;;;;;;;5.40;62.20;96782.13;4978014;28;20433;-69
2023/04/10 04:57:34;;;;;;;21.10;13.70;;;;;;;5.39;62.33;96780.41;4975056;28;20185;-69
2023/04/10 05:00:00;;;;;;;20.87;12.50;;;;;;;5.32;62.39;96797.00;4985358;28;20614;-69
2023/04/10 05:02:25;;;;;;;28.93;15.10;;;;;;;5.28;62.79;96787.53;4968741;28;20658;-69
2023/04/10 05:04:50;;;;;;;18.30;13.90;;;;;;;5.29;62.49;96795.31;4978269;28;20991;-69
2023/04/10 05:07:16;;;;;;;24.30;12.80;;;;;;;5.21;63.06;96791.97;4986202;28;20185;-69
2023/04/10 05:09:41;;;;;;;17.20;12.77;;;;;;;4.79;64.18;96786.56;4986247;28;20215;-70
2023/04/10 05:12:07;;;;;;;34.27;14.57;;;;;;;5.22;63.20;96783.31;4972291;28;20787;-69
2023/04/10 05:14:32;;;;;;;19.80;13.23;;;;;;;5.40;62.39;96776.91;4968937;28;20188;-69
2023/04/10 05:16:57;;;;;;;26.20;14.27;;;;;;;5.23;62.86;96782.41;4967153;28;20177;-69
2023/04/10 05:19:23;;;;;;;24.20;13.83;;;;;;;5.52;62.08;96778.44;4967461;28;20206;-69
2023/04/10 05:21:48;;;;;;;18.83;13.53;;;;;;;5.45;62.17;96782.03;4982342;28;20619;-69
2023/04/10 05:24:14;;;;;;;20.03;13.90;;;;;;;5.38;62.72;96783.03;4977504;28;20240;-69
2023/04/10 05:26:41;;;;;;;22.00;13.43;;;;;;;5.23;63.10;96781.56;4966958;28;20181;-69
2023/04/10 05:29:07;;;;;;;18.70;13.87;;;;;;;5.57;62.60;96791.38;4972595;28;20193;-70
2023/04/10 05:31:32;;;;;;;18.80;13.40;;;;;;;5.86;61.48;96789.09;4979826;28;20811;-70
2023/04/10 05:33:57;;;;;;;19.03;14.53;;;;;;;6.62;59.68;96780.63;4978997;28;20216;-70
2023/04/10 05:36:23;;;;;;;32.47;13.63;;;;;;;8.05;54.94;96771.81;4987885;28;20181;-70
2023/04/10 05:38:48;;;;;;;15.80;12.90;;;;;;;8.41;53.21;96775.19;4978516;28;20208;-70
2023/04/10 05:41:14;;;;;;;18.80;13.60;;;;;;;8.85;52.44;96777.34;4983798;28;20597;-70
2023/04/10 05:43:39;;;;;;;23.23;14.10;;;;;;;9.30;50.32;96776.78;4981444;28;20260;-70
2023/04/10 05:46:05;;;;;;;20.63;14.43;;;;;;;10.13;47.99;96776.56;4969833;28;20232;-70
2023/04/10 05:48:30;;;;;;;18.80;13.70;;;;;;;9.99;48.37;96777.06;4970897;28;20177;-68
2023/04/10 05:50:56;;;;;;;14.03;12.50;;;;;;;9.63;48.78;96774.81;4982330;28;20220;-68
2023/04/10 05:53:31;;;;;;;16.10;13.73;;;;;;;9.34;50.10;96770.56;4981226;28;20190;-70
2023/04/10 05:55:58;;;;;;;18.33;13.30;;;;;;;10.10;48.60;96768.81;4978304;28;20322;-70
2023/04/10 05:58:25;;;;;;;16.80;14.80;;;;;;;11.06;46.05;96766.97;4970864;28;20539;-71
2023/04/10 06:00:51;;;;;;;19.97;13.87;;;;;;;11.06;45.74;96764.34;4972865;28;20452;-71
2023/04/10 06:03:17;;;;;;;18.70;13.93;;;;;;;11.22;45.39;96769.84;4981296;28;20439;-70
2023/04/10 06:05:42;;;;;;;18.43;14.53;;;;;;;10.70;47.00;96770.13;4979739;28;20439;-70
2023/04/10 06:08:08;;;;;;;15.83;14.07;;;;;;;10.14;47.55;96780.91;4970325;28;20674;-71
2023/04/10 06:10:33;;;;;;;16.17;14.47;;;;;;;10.67;46.55;96774.63;4981810;28;20702;-69
2023/04/10 06:12:59;;;;;;;14.10;12.43;;;;;;;9.42;49.35;96783.41;4979805;28;20191;-70
2023/04/10 06:15:25;;;;;;;23.03;13.80;;;;;;;9.82;49.69;96782.91;4978046;28;20189;-71
2023/04/10 06:17:50;;;;;;;17.17;13.13;;;;;;;8.97;50.99;96779.59;4979621;28;20551;-70
2023/04/10 06:20:16;;;;;;;16.13;11.97;;;;;;;8.30;52.28;96779.84;4977967;28;20205;-70
2023/04/10 06:22:41;;;;;;;27.73;14.07;;;;;;;8.63;51.60;96778.03;4970547;28;20285;-70
2023/04/10 06:25:07;;;;;;;22.80;13.10;;;;;;;9.49;49.52;96769.19;4981088;28;20193;-70
2023/04/10 06:27:34;;;;;;;19.00;13.10;;;;;;;9.08;50.14;96776.66;4977119;28;20294;-69
2023/04/10 06:30:00;;;;;;;24.63;12.90;;;;;;;9.35;50.20;96777.50;4976067;28;20197;-69
2023/04/10 06:32:25;;;;;;;14.03;10.30;;;;;;;10.40;47.35;96774.75;4988538;28;20428;-69
2023/04/10 06:34:51;;;;;;;15.13;11.80;;;;;;;10.02;47.80;96776.13;4989650;28;20191;-70
2023/04/10 06:37:17;;;;;;;19.47;13.77;;;;;;;9.87;47.98;96783.59;4988773;28;20181;-70
2023/04/10 06:39:42;;;;;;;23.27;12.50;;;;;;;11.01;45.83;96776.78;4988880;28;20236;-70
2023/04/10 06:42:08;;;;;;;19.27;12.17;;;;;;;11.39;44.70;96774.41;4988391;28;20187;-69
2023/04/10 06:44:33;;;;;;;19.00;12.20;;;;;;;11.59;44.60;96776.19;4988968;28;20297;-70
2023/04/10 06:46:59;;;;;;;12.70;11.33;;;;;;;11.89;43.73;96770.59;4977686;28;20193;-70
2023/04/10 06:49:25;;;;;;;13.00;11.57;;;;;;;11.04;45.44;96760.06;4978775;28;20227;-69
2023/04/10 06:51:50;;;;;;;18.80;12.43;;;;;;;11.03;44.89;96764.44;4976029;28;20613;-69
2023/04/10 06:54:16;;;;;;;23.93;13.13;;;;;;;10.49;46.61;96774.41;4970079;28;20429;-70
2023/04/10 06:56:41;;;;;;;14.77;12.30;;;;;;;9.88;48.23;96779.22;4982486;28;20645;-70
2023/04/10 06:59:07;;;;;;;14.70;12.07;;;;;;;10.43;47.49;96773.78;4987557;28;20485;-70
2023/04/10 07:01:32;;;;;;;20.17;13.00;;;;;;;10.96;45.39;96769.09;4979574;28;20186;-70
2023/04/10 07:03:58;;;;;;;17.53;11.00;;;;;;;11.32;45.21;96763.28;4983614;28;20185;-70
2023/04/10 07:06:23;;;;;;;11.77;10.57;;;;;;;11.01;45.83;96767.13;4988591;28;20197;-70
2023/04/10 07:08:49;;;;;;;17.40;11.50;;;;;;;11.47;44.50;96758.31;4986107;28;20177;-71
2023/04/10 07:11:14;;;;;;;11.80;10.60;;;;;;;11.70;43.74;96758.19;4987758;28;20227;-70
2023/04/10 07:13:40;;;;;;;14.20;11.70;;;;;;;11.49;44.51;96765.19;4988836;28;20607;-70
2023/04/10 07:16:07;;;;;;;14.17;10.90;;;;;;;11.60;43.91;96756.88;4987810;28;20177;-70
2023/04/10 07:18:34;;;;;;;12.47;10.60;;;;;;;12.23;43.04;96751.53;4987085;28;20556;-70
2023/04/10 07:21:00;;;;;;;12.10;10.80;;;;;;;11.56;42.87;96766.66;4988639;28;20440;-70
2023/04/10 07:23:26;;;;;;;13.93;10.70;;;;;;;11.25;44.44;96753.94;4982031;28;20442;-70
2023/04/10 07:25:51;;;;;;;12.40;9.87;;;;;;;11.09;44.89;96748.44;4986230;28;20284;-70
2023/04/10 07:28:17;;;;;;;12.57;10.10;;;;;;;11.09;43.98;96758.94;4984986;28;21133;-70
2023/04/10 07:30:42;;;;;;;12.50;9.93;;;;;;;10.78;45.31;96749.66;4988350;28;20201;-70
2023/04/10 07:33:08;;;;;;;11.70;9.80;;;;;;;11.19;44.51;96755.03;4985605;28;20200;-71
2023/04/10 07:35:33;;;;;;;11.23;9.93;;;;;;;10.16;47.54;96761.59;5003283;28;20185;-70
2023/04/10 07:38:00;;;;;;;13.47;11.37;;;;;;;9.60;49.39;96760.97;4988279;28;20203;-70
2023/04/10 07:40:25;;;;;;;12.97;10.87;;;;;;;10.56;46.67;96756.66;4984485;28;20263;-70
2023/04/10 07:42:51;;;;;;;11.50;9.60;;;;;;;10.52;46.52;96763.78;4988525;28;20452;-71
2023/04/10 07:45:16;;;;;;;12.13;10.10;;;;;;;10.75;46.35;96752.41;4988535;28;20227;-70
2023/04/10 07:47:42;;;;;;;15.23;10.43;;;;;;;10.55;46.32;96760.19;4988459;28;20299;-71
2023/04/10 07:50:07;;;;;;;12.40;9.93;;;;;;;11.04;45.67;96747.78;4985479;28;20750;-71
2023/04/10 07:52:33;;;;;;;12.10;8.77;;;;;;;10.85;46.19;96749.44;4982199;28;20185;-71
2023/04/10 07:55:02;;;;;;;12.73;9.50;;;;;;;10.86;46.30;96762.47;4987722;28;20586;-71
2023/04/10 07:57:28;;;;;;;11.83;9.73;;;;;;;10.88;46.81;96754.56;4986366;28;20669;-71
2023/04/10 07:59:53;;;;;;;10.97;9.87;;;;;;;10.88;46.44;96754.56;4979261;28;20475;-71
2023/04/10 08:02:19;;;;;;;16.10;10.63;;;;;;;11.30;46.03;96751.13;4976667;28;20185;-71
2023/04/10 08:04:44;;;;;;;14.00;11.03;;;;;;;10.84;47.42;96747.69;4983402;28;20519;-71
2023/04/10 08:07:10;;;;;;;11.67;9.30;;;;;;;11.60;45.20;96747.22;4979011;28;20260;-70
2023/04/10 08:09:35;;;;;;;12.13;10.27;;;;;;;11.63;45.29;96747.06;4987128;28;20197;-71
2023/04/10 08:12:02;;;;;;;13.07;10.70;;;;;;;12.11;44.42;96744.19;4987562;28;20173;-71
2023/04/10 08:14:27;;;;;;;13.97;11.53;;;;;;;11.71;45.08;96746.75;4983888;28;20181;-71
2023/04/10 08:16:53;;;;;;;11.97;9.57;;;;;;;11.84;45.22;96755.81;4985633;28;20455;-71
2023/04/10 08:19:18;;;;;;;25.63;10.60;;;;;;;11.74;45.20;96746.63;4984013;28;20295;-71
2023/04/10 08:21:44;;;;;;;13.43;9.80;;;;;;;12.24;43.83;96753.25;4978023;28;20184;-72
2023/04/10 08:24:09;;;;;;;10.77;9.67;;;;;;;11.57;44.96;96749.94;4984155;28;20176;-70
2023/04/10 08:26:35;;;;;;;13.33;10.70;;;;;;;12.31;44.33;96754.69;4987047;28;20184;-70
2023/04/10 08:29:00;;;;;;;15.10;9.73;;;;;;;13.12;42.38;96755.28;4987209;28;20169;-71
2023/04/10 08:31:27;;;;;;;12.17;9.63;;;;;;;13.03;42.07;96751.31;4987543;28;20183;-70
2023/04/10 08:33:53;;;;;;;11.70;9.60;;;;;;;12.61;44.08;96744.50;4986456;28;20232;-70
2023/04/10 08:36:18;;;;;;;21.20;9.90;;;;;;;13.03;42.71;96745.19;4986430;28;20905;-71
2023/04/10 08:38:45;;;;;;;13.60;8.80;;;;;;;14.30;39.10;96736.13;4987601;28;20208;-71
2023/04/10 08:41:11;;;;;;;13.03;7.77;;;;;;;14.74;37.69;96735.56;4990720;28;20250;-71
2023/04/10 08:43:37;;;;;;;9.90;8.43;;;;;;;14.60;38.28;96740.75;4987493;28;20430;-71
2023/04/10 08:46:03;;;;;;;13.30;8.27;;;;;;;15.29;36.04;96734.22;4985890;28;20424;-71
2023/04/10 08:49:07;;;;;;;7.93;6.50;;;;;;;13.36;37.30;96733.97;4985576;28;20199;-70
2023/04/10 08:51:43;;;;;;;8.90;7.87;;;;;;;12.78;38.41;96746.38;4980946;28;20275;-71
2023/04/10 08:54:24;;;;;;;10.90;7.53;;;;;;;12.59;40.17;96738.50;4982451;28;20614;-71
2023/04/10 08:56:52;;;;;;;9.10;7.97;;;;;;;13.01;39.15;96739.16;4974906;28;20447;-71
2023/04/10 08:59:18;;;;;;;15.03;8.57;;;;;;;13.61;39.54;96734.47;4975007;28;20542;-71
2023/04/10 09:01:45;;;;;;;8.70;7.37;;;;;;;13.55;46.08;96726.84;4967826;28;20421;-71
2023/04/10 09:04:11;;;;;;;9.87;7.20;;;;;;;13.72;45.32;96725.97;4978700;28;20496;-71
2023/04/10 09:06:37;;;;;;;10.90;7.63;;;;;;;14.50;40.74;96718.34;4974542;28;20973;-71
2023/04/10 09:09:04;;;;;;;12.57;7.40;;;;;;;14.53;45.44;96724.34;4986542;28;20428;-71
2023/04/10 09:11:55;;;;;;;16.07;7.60;;;;;;;14.59;39.30;96721.38;4993554;28;20177;-71
2023/04/10 09:14:22;;;;;;;7.60;6.90;;;;;;;14.39;41.19;96719.81;4984160;28;20441;-71
2023/04/10 09:16:48;;;;;;;8.90;6.37;;;;;;;14.26;36.06;96709.97;4978999;28;20568;-70
2023/04/10 09:19:29;;;;;;;9.17;6.93;;;;;;;13.89;37.29;96709.28;4987060;28;20459;-70
2023/04/10 09:21:55;;;;;;;10.03;6.63;;;;;;;13.81;36.84;96722.88;4984512;28;20187;-69
2023/04/10 09:24:22;;;;;;;7.83;5.97;;;;;;;13.20;37.48;96713.59;4977773;28;20435;-69
2023/04/10 09:26:48;;;;;;;10.10;5.93;;;;;;;13.18;36.42;96707.56;4982317;28;20235;-70
2023/04/10 09:29:15;;;;;;;10.63;6.10;;;;;;;13.82;35.00;96706.13;4975499;28;20444;-70
2023/04/10 09:31:42;;;;;;;9.20;6.70;;;;;;;14.12;35.07;96701.00;4976955;28;20188;-70
2023/04/10 09:34:10;;;;;;;9.17;5.87;;;;;;;13.59;35.81;96698.56;4990748;28;20514;-68
2023/04/10 09:36:36;;;;;;;10.80;6.90;;;;;;;13.62;36.11;96699.22;4983851;28;20428;-69
2023/04/10 09:39:04;;;;;;;6.63;5.90;;;;;;;13.63;35.97;96694.81;4991247;28;20467;-68
2023/04/10 09:41:30;;;;;;;7.10;6.10;;;;;;;13.47;37.15;96700.03;4986359;28;20448;-68
2023/04/10 09:44:06;;;;;;;6.80;5.93;;;;;;;13.71;36.10;96701.41;4986608;28;20435;-69
2023/04/10 09:46:32;;;;;;;9.47;5.60;;;;;;;13.53;35.26;96694.41;4986550;28;20423;-68
2023/04/10 09:49:00;;;;;;;11.25;5.50;;;;;;;13.00;37.46;96687.41;4983631;28;20376;-70
2023/04/10 09:51:29;;;;;;;7.30;5.90;;;;;;;13.64;36.09;96681.53;4985715;28;20204;-69
2023/04/10 09:53:54;;;;;;;6.70;5.77;;;;;;;13.63;36.35;96677.22;4974240;28;20464;-69
2023/04/10 09:56:21;;;;;;;7.23;6.53;;;;;;;13.85;35.80;96670.81;4988042;28;20521;-70
2023/04/10 09:58:48;;;;;;;6.77;6.00;;;;;;;13.84;36.10;96671.72;4984136;28;20232;-69
2023/04/10 10:01:14;;;;;;;7.70;5.90;;;;;;;14.18;35.37;96669.00;4983568;28;20425;-68
2023/04/10 10:03:40;;;;;;;6.40;5.63;;;;;;;14.24;34.72;96657.25;4981795;28;20465;-68
2023/04/10 10:06:06;;;;;;;6.43;5.73;;;;;;;13.87;35.22;96648.69;4978733;28;20436;-68
2023/04/10 10:08:33;;;;;;;7.70;4.93;;;;;;;13.98;35.31;96648.09;4983539;28;20276;-68
2023/04/10 10:11:01;;;;;;;8.33;5.80;;;;;;;14.04;35.68;96647.78;4979021;28;20482;-71
2023/04/10 10:13:53;;;;;;;7.33;5.90;;;;;;;13.81;35.07;96650.81;4983845;28;20424;-70
2023/04/10 10:16:26;;;;;;;10.07;5.20;;;;;;;13.99;35.04;96644.56;4981729;28;20444;-70
2023/04/10 10:18:58;;;;;;;31.13;8.73;;;;;;;14.07;34.21;96630.94;4982463;28;20905;-70
2023/04/10 10:21:26;;;;;;;8.63;4.30;;;;;;;14.00;33.50;96637.47;4985088;28;20799;-71
2023/04/10 10:23:54;;;;;;;6.33;4.50;;;;;;;14.07;32.82;96637.06;4978890;28;20522;-70
2023/04/10 10:26:23;;;;;;;12.17;3.70;;;;;;;14.40;32.59;96620.31;4987239;28;20416;-71
2023/04/10 10:28:53;;;;;;;5.97;4.37;;;;;;;14.84;31.77;96618.78;4987442;28;20440;-71
2023/04/10 10:31:22;;;;;;;9.70;4.07;;;;;;;15.29;31.92;96611.75;5002616;28;20424;-71
2023/04/10 10:33:51;;;;;;;5.70;5.20;;;;;;;14.80;31.80;96610.19;4987411;28;20416;-70
2023/04/10 10:36:18;;;;;;;5.13;4.13;;;;;;;15.20;32.14;96610.50;4987008;28;20408;-72
2023/04/10 10:38:54;;;;;;;4.70;4.20;;;;;;;15.33;31.51;96602.69;4985463;28;20475;-71
2023/04/10 10:41:34;;;;;;;5.03;4.10;;;;;;;14.58;31.86;96600.84;4987447;28;20435;-70
2023/04/10 10:44:15;;;;;;;5.50;4.47;;;;;;;15.08;31.66;96587.44;4987333;28;20423;-69
2023/04/10 10:46:47;;;;;;;6.13;5.30;;;;;;;14.89;32.23;96591.16;4982832;28;20770;-69
2023/04/10 10:49:13;;;;;;;6.67;5.37;;;;;;;14.77;32.49;96583.94;4985587;28;20810;-70
2023/04/10 10:51:49;;;;;;;17.00;5.30;;;;;;;14.92;30.51;96580.41;4986853;28;20436;-69
2023/04/10 10:54:27;;;;;;;24.10;5.63;;;;;;;14.87;29.04;96579.81;4986176;28;20618;-70
2023/04/10 10:56:52;;;;;;;4.30;3.60;;;;;;;14.88;29.67;96565.69;4983130;28;20439;-70
2023/04/10 10:59:17;;;;;;;6.13;3.83;;;;;;;15.34;30.80;96564.75;4986695;28;20469;-70
2023/04/10 11:02:12;;;;;;;19.10;6.50;;;;;;;15.44;30.00;96561.44;4981816;28;20184;-70
2023/04/10 11:04:45;;;;;;;7.67;4.40;;;;;;;15.63;30.50;96569.09;4984414;28;20172;-70
2023/04/10 11:07:11;;;;;;;10.80;5.73;;;;;;;15.27;30.63;96564.25;4975611;28;20471;-70
2023/04/10 11:09:44;;;;;;;4.57;3.63;;;;;;;14.80;30.90;96555.53;4977374;28;20448;-71
2023/04/10 11:12:10;;;;;;;9.93;4.07;;;;;;;15.47;29.04;96541.88;4968948;28;20443;-70
2023/04/10 11:14:36;;;;;;;8.73;3.50;;;;;;;15.91;28.22;96537.47;4981637;28;20428;-71
2023/04/10 11:17:02;;;;;;;4.00;3.37;;;;;;;15.36;28.91;96539.06;4969892;28;20220;-70
2023/04/10 11:19:27;;;;;;;5.43;3.90;;;;;;;15.15;29.37;96534.13;4976404;28;21195;-69
2023/04/10 11:21:59;;;;;;;9.10;4.20;;;;;;;15.11;29.26;96543.16;4983594;28;20181;-68
2023/04/10 11:24:25;;;;;;;6.70;3.77;;;;;;;15.29;29.47;96535.09;4984319;28;20188;-69
2023/04/10 11:26:51;;;;;;;7.30;3.67;;;;;;;15.07;30.51;96538.16;4982605;28;20431;-69